createdAt,value
2022-09-03T00:00:25.358Z,13.76
2022-09-03T00:03:00.794Z,13.75
2022-09-03T00:05:34.600Z,13.72
2022-09-03T00:08:07.100Z,13.65
2022-09-03T00:10:37.032Z,13.66
2022-09-03T00:13:06.824Z,13.65
2022-09-03T00:15:36.005Z,13.62
2022-09-03T00:18:07.817Z,13.63
2022-09-03T00:20:41.245Z,13.65
2022-09-03T00:23:11.619Z,13.63
2022-09-03T00:25:42.243Z,13.63
2022-09-03T00:28:14.712Z,13.61
2022-09-03T00:30:44.221Z,13.58
2022-09-03T00:33:19.510Z,13.52
2022-09-03T00:35:49.976Z,13.58
2022-09-03T00:38:18.187Z,13.59
2022-09-03T00:41:07.941Z,13.62
2022-09-03T00:43:53.584Z,13.59
2022-09-03T00:46:25.896Z,13.59
2022-09-03T00:49:14.283Z,13.57
2022-09-03T00:51:47.931Z,13.52
2022-09-03T00:54:21.708Z,13.47
2022-09-03T00:56:55.799Z,13.45
2022-09-03T00:59:31.577Z,13.47
2022-09-03T01:02:09.346Z,13.40
2022-09-03T01:04:49.049Z,13.34
2022-09-03T01:07:22.416Z,13.32
2022-09-03T01:09:54.552Z,13.30
2022-09-03T01:12:33.259Z,13.30
2022-09-03T01:15:08.405Z,13.27
2022-09-03T01:17:49.631Z,13.27
2022-09-03T01:20:30.747Z,13.30
2022-09-03T01:23:23.230Z,13.26
2022-09-03T01:25:54.766Z,13.24
2022-09-03T01:28:40.687Z,13.17
2022-09-03T01:31:18.252Z,13.17
2022-09-03T01:33:51.529Z,13.14
2022-09-03T01:36:25.518Z,13.14
2022-09-03T01:38:57.505Z,13.08
2022-09-03T01:41:51.957Z,13.08
2022-09-03T01:44:28.395Z,13.07
2022-09-03T01:47:02.649Z,13.01
2022-09-03T01:49:35.763Z,12.96
2022-09-03T01:52:09.016Z,12.94
2022-09-03T01:54:50.485Z,12.94
2022-09-03T01:57:37.408Z,12.93
2022-09-03T02:00:10.766Z,12.91
2022-09-03T02:02:39.196Z,12.91
2022-09-03T02:05:09.958Z,12.86
2022-09-03T02:07:40.736Z,12.86
2022-09-03T02:10:10.625Z,12.87
2022-09-03T02:12:43.071Z,12.83
2022-09-03T02:15:13.342Z,12.80
2022-09-03T02:17:42.526Z,12.72
2022-09-03T02:20:13.860Z,12.69
2022-09-03T02:22:42.082Z,12.63
2022-09-03T02:25:11.379Z,12.58
2022-09-03T02:27:39.787Z,12.56
2022-09-03T02:30:09.071Z,12.59
2022-09-03T02:32:38.733Z,12.56
2022-09-03T02:35:07.500Z,12.52
2022-09-03T02:37:35.566Z,12.53
2022-09-03T02:40:06.714Z,12.49
2022-09-03T02:42:34.971Z,12.46
2022-09-03T02:45:09.240Z,12.49
2022-09-03T02:47:39.251Z,12.52
2022-09-03T02:50:08.215Z,12.49
2022-09-03T02:52:36.493Z,12.45
2022-09-03T02:55:04.969Z,12.44
2022-09-03T02:57:33.088Z,12.46
2022-09-03T03:00:01.182Z,12.42
2022-09-03T03:02:29.201Z,12.38
2022-09-03T03:04:58.630Z,12.36
2022-09-03T03:07:26.844Z,12.35
2022-09-03T03:09:56.130Z,12.32
2022-09-03T03:12:25.264Z,12.29
2022-09-03T03:14:53.224Z,12.26
2022-09-03T03:17:21.251Z,12.26
2022-09-03T03:19:49.262Z,12.28
2022-09-03T03:22:18.526Z,12.24
2022-09-03T03:24:46.530Z,12.22
2022-09-03T03:27:14.996Z,12.20
2022-09-03T03:29:42.966Z,12.17
2022-09-03T03:32:11.099Z,12.15
2022-09-03T03:34:39.967Z,12.18
2022-09-03T03:37:07.950Z,12.17
2022-09-03T03:39:37.421Z,12.08
2022-09-03T03:42:05.698Z,12.08
2022-09-03T03:44:33.680Z,12.11
2022-09-03T03:47:01.824Z,12.12
2022-09-03T03:49:29.929Z,12.05
2022-09-03T03:51:58.016Z,12.03
2022-09-03T03:54:26.668Z,12.00
2022-09-03T03:56:56.000Z,12.00
2022-09-03T03:59:24.700Z,11.97
2022-09-03T04:01:53.072Z,11.94
2022-09-03T04:04:21.033Z,11.89
2022-09-03T04:06:49.232Z,11.89
2022-09-03T04:09:17.261Z,11.89
2022-09-03T04:11:45.238Z,11.89
2022-09-03T04:14:14.880Z,11.91
2022-09-03T04:16:43.321Z,11.94
2022-09-03T04:19:11.671Z,12.03
2022-09-03T04:21:40.167Z,12.04
2022-09-03T04:24:08.587Z,12.08
2022-09-03T04:26:36.884Z,12.10
2022-09-03T04:29:06.394Z,12.08
2022-09-03T04:31:37.177Z,12.11
2022-09-03T04:34:06.519Z,12.20
2022-09-03T04:36:35.007Z,12.22
2022-09-03T04:39:03.237Z,12.24
2022-09-03T04:41:32.692Z,12.26
2022-09-03T04:44:01.398Z,12.32
2022-09-03T04:46:33.750Z,12.42
2022-09-03T04:49:03.765Z,12.53
2022-09-03T04:51:32.437Z,12.59
2022-09-03T04:54:01.948Z,12.65
2022-09-03T04:56:32.214Z,12.66
2022-09-03T04:59:02.041Z,12.66
2022-09-03T05:01:31.870Z,12.69
2022-09-03T05:04:00.548Z,12.72
2022-09-03T05:06:31.478Z,12.72
2022-09-03T05:08:59.971Z,12.75
2022-09-03T05:11:29.288Z,12.76
2022-09-03T05:13:59.868Z,12.82
2022-09-03T05:16:30.230Z,12.82
2022-09-03T05:19:01.246Z,12.83
2022-09-03T05:21:30.991Z,12.86
2022-09-03T05:24:02.215Z,12.86
2022-09-03T05:26:31.945Z,12.87
2022-09-03T05:29:01.539Z,12.87
2022-09-03T05:31:32.004Z,12.89
2022-09-03T05:34:03.122Z,12.89
2022-09-03T05:36:34.652Z,12.91
2022-09-03T05:39:02.782Z,12.94
2022-09-03T05:41:33.540Z,12.97
2022-09-03T05:44:01.597Z,13.01
2022-09-03T05:46:33.432Z,13.06
2022-09-03T05:49:02.373Z,13.11
2022-09-03T05:51:32.958Z,13.14
2022-09-03T05:54:02.778Z,13.13
2022-09-03T05:56:32.019Z,13.20
2022-09-03T05:59:04.726Z,13.23
2022-09-03T06:01:34.192Z,13.26
2022-09-03T06:04:04.593Z,13.32
2022-09-03T06:06:35.840Z,13.37
2022-09-03T06:09:05.827Z,13.41
2022-09-03T06:11:35.601Z,13.45
2022-09-03T06:14:06.011Z,13.52
2022-09-03T06:16:35.494Z,13.57
2022-09-03T06:19:03.786Z,13.65
2022-09-03T06:21:31.885Z,13.65
2022-09-03T06:24:01.265Z,13.68
2022-09-03T06:26:29.840Z,13.75
2022-09-03T06:28:58.401Z,13.81
2022-09-03T06:31:27.375Z,13.79
2022-09-03T06:33:58.570Z,13.86
2022-09-03T06:36:29.092Z,13.90
2022-09-03T06:38:57.702Z,13.98
2022-09-03T06:41:31.899Z,13.93
2022-09-03T06:44:03.430Z,14.02
2022-09-03T06:46:32.673Z,14.10
2022-09-03T06:49:00.698Z,14.20
2022-09-03T06:51:30.550Z,14.34
2022-09-03T06:54:01.760Z,14.38
2022-09-03T06:56:37.377Z,14.45
2022-09-03T06:59:08.989Z,14.54
2022-09-03T07:01:44.045Z,14.68
2022-09-03T07:04:13.209Z,14.72
2022-09-03T07:06:43.247Z,14.82
2022-09-03T07:09:13.013Z,14.71
2022-09-03T07:11:47.374Z,14.78
2022-09-03T07:14:16.823Z,14.84
2022-09-03T07:16:46.132Z,14.99
2022-09-03T07:19:14.405Z,15.18
2022-09-03T07:21:48.796Z,15.42
2022-09-03T07:24:19.312Z,15.65
2022-09-03T07:26:49.608Z,15.70
2022-09-03T07:29:20.454Z,15.82
2022-09-03T07:31:51.607Z,16.04
2022-09-03T07:34:20.492Z,16.21
2022-09-03T07:36:51.407Z,16.12
2022-09-03T07:39:20.682Z,15.98
2022-09-03T07:41:50.259Z,16.02
2022-09-03T07:44:20.632Z,16.02
2022-09-03T07:46:50.880Z,15.95
2022-09-03T07:49:20.334Z,15.98
2022-09-03T07:51:50.946Z,16.25
2022-09-03T07:54:20.399Z,16.26
2022-09-03T07:56:49.834Z,16.14
2022-09-03T07:59:18.175Z,16.37
2022-09-03T08:01:46.237Z,16.67
2022-09-03T08:04:14.379Z,16.69
2022-09-03T08:06:42.467Z,16.69
2022-09-03T08:09:13.739Z,16.98
2022-09-03T08:11:44.426Z,17.36
2022-09-03T08:14:14.952Z,17.69
2022-09-03T08:16:44.607Z,17.72
2022-09-03T08:19:13.482Z,18.22
2022-09-03T08:21:42.543Z,18.79
2022-09-03T08:24:11.704Z,19.02
2022-09-03T08:26:41.928Z,19.18
2022-09-03T08:29:10.564Z,19.47
2022-09-03T08:31:40.008Z,19.51
2022-09-03T08:34:08.600Z,20.06
2022-09-03T08:36:38.306Z,20.63
2022-09-03T08:39:10.241Z,20.68
2022-09-03T08:41:42.579Z,20.50
2022-09-03T08:44:21.349Z,20.54
2022-09-03T08:46:53.012Z,20.95
2022-09-03T08:49:25.286Z,21.32
2022-09-03T08:51:53.751Z,21.39
2022-09-03T08:54:23.179Z,21.21
2022-09-03T08:56:52.612Z,20.94
2022-09-03T08:59:22.082Z,20.96
2022-09-03T09:02:00.542Z,20.99
2022-09-03T09:04:36.029Z,20.64
2022-09-03T09:07:09.683Z,21.01
2022-09-03T09:09:44.306Z,20.95
2022-09-03T09:12:19.549Z,20.63
2022-09-03T09:14:52.101Z,20.74
2022-09-03T09:17:41.774Z,21.05
2022-09-03T09:20:17.242Z,21.60
2022-09-03T09:22:47.612Z,22.02
2022-09-03T09:25:19.498Z,21.91
2022-09-03T09:27:52.567Z,21.58
2022-09-03T09:30:20.981Z,21.76
2022-09-03T09:32:50.409Z,22.10
2022-09-03T09:35:19.378Z,22.42
2022-09-03T09:37:48.841Z,22.07
2022-09-03T09:40:31.089Z,22.21
2022-09-03T09:43:06.923Z,22.39
2022-09-03T09:45:35.313Z,22.27
2022-09-03T09:48:10.863Z,22.31
2022-09-03T09:50:39.228Z,22.29
2022-09-03T09:53:14.797Z,21.65
2022-09-03T09:55:54.831Z,21.74
2022-09-03T09:58:25.326Z,21.97
2022-09-03T10:01:03.222Z,21.83
2022-09-03T10:03:36.249Z,21.79
2022-09-03T10:06:21.058Z,21.96
2022-09-03T10:08:49.527Z,21.81
2022-09-03T10:11:18.902Z,22.08
2022-09-03T10:13:48.516Z,22.28
2022-09-03T10:16:23.394Z,21.97
2022-09-03T10:18:59.175Z,21.53
2022-09-03T10:21:34.367Z,21.65
2022-09-03T10:24:16.447Z,21.80
2022-09-03T10:26:46.142Z,22.31
2022-09-03T10:29:19.510Z,22.18
2022-09-03T10:31:57.021Z,22.01
2022-09-03T10:34:37.106Z,21.88
2022-09-03T10:37:15.767Z,22.05
2022-09-03T10:39:53.477Z,22.05
2022-09-03T10:42:41.147Z,21.71
2022-09-03T10:45:19.232Z,21.66
2022-09-03T10:48:07.542Z,21.65
2022-09-03T10:50:46.012Z,21.45
2022-09-03T10:53:24.878Z,21.28
2022-09-03T10:55:59.251Z,20.96
2022-09-03T10:58:45.432Z,20.73
2022-09-03T11:01:22.363Z,20.75
2022-09-03T11:03:55.090Z,21.16
2022-09-03T11:06:27.341Z,21.54
2022-09-03T11:09:02.052Z,21.84
2022-09-03T11:11:37.615Z,22.42
2022-09-03T11:14:10.016Z,22.76
2022-09-03T11:16:41.492Z,22.77
2022-09-03T11:19:12.331Z,22.76
2022-09-03T11:21:44.052Z,22.85
2022-09-03T11:24:15.071Z,22.64
2022-09-03T11:26:45.224Z,22.29
2022-09-03T11:29:17.227Z,22.16
2022-09-03T11:31:57.788Z,21.84
2022-09-03T11:34:32.006Z,21.59
2022-09-03T11:37:22.808Z,21.66
2022-09-03T11:40:05.469Z,21.63
2022-09-03T11:42:37.002Z,21.73
2022-09-03T11:45:22.720Z,22.00
2022-09-03T11:47:51.279Z,22.49
2022-09-03T11:50:22.943Z,22.85
2022-09-03T11:52:54.303Z,23.07
2022-09-03T11:55:38.291Z,23.03
2022-09-03T11:58:13.363Z,22.62
2022-09-03T12:00:44.843Z,22.13
2022-09-03T12:03:18.005Z,22.01
2022-09-03T12:05:51.619Z,22.27
2022-09-03T12:08:54.987Z,22.25
2022-09-03T12:11:35.733Z,22.29
2022-09-03T12:14:13.818Z,22.48
2022-09-03T12:17:06.232Z,22.56
2022-09-03T12:19:39.321Z,22.62
2022-09-03T12:22:07.499Z,22.42
2022-09-03T12:24:38.456Z,22.13
2022-09-03T12:27:08.003Z,22.20
2022-09-03T12:29:36.276Z,22.24
2022-09-03T12:32:08.981Z,22.14
2022-09-03T12:34:37.426Z,22.16
2022-09-03T12:38:04.282Z,22.14
2022-09-03T12:40:18.172Z,22.02
2022-09-03T12:42:46.368Z,21.94
2022-09-03T12:45:16.622Z,21.81
2022-09-03T12:47:45.108Z,21.77
2022-09-03T12:50:14.720Z,21.69
2022-09-03T12:52:45.115Z,21.54
2022-09-03T12:55:27.675Z,21.53
2022-09-03T12:58:02.648Z,21.58
2022-09-03T13:00:35.399Z,21.58
2022-09-03T13:03:05.945Z,21.47
2022-09-03T13:05:36.175Z,21.42
2022-09-03T13:08:07.140Z,21.40
2022-09-03T13:10:42.050Z,21.42
2022-09-03T13:13:21.011Z,21.50
2022-09-03T13:16:47.384Z,21.63
2022-09-03T13:19:22.870Z,21.80
2022-09-03T13:21:55.668Z,21.96
2022-09-03T13:24:44.601Z,22.22
2022-09-03T13:27:20.699Z,22.22
2022-09-03T13:30:05.280Z,21.96
2022-09-03T13:32:40.954Z,21.98
2022-09-03T13:35:12.782Z,21.88
2022-09-03T13:37:44.456Z,21.79
2022-09-03T13:40:17.827Z,21.66
2022-09-03T13:42:53.388Z,21.65
2022-09-03T13:45:31.363Z,21.60
2022-09-03T13:48:19.651Z,21.56
2022-09-03T13:50:50.530Z,21.52
2022-09-03T13:53:32.852Z,21.52
2022-09-03T13:56:06.525Z,21.56
2022-09-03T13:58:38.692Z,21.59
2022-09-03T14:01:09.256Z,21.69
2022-09-03T14:03:48.094Z,21.71
2022-09-03T14:06:25.985Z,21.69
2022-09-03T14:09:02.250Z,21.69
2022-09-03T14:11:33.803Z,21.66
2022-09-03T14:14:16.555Z,21.71
2022-09-03T14:16:50.067Z,21.77
2022-09-03T14:19:23.386Z,21.81
2022-09-03T14:21:54.578Z,21.84
2022-09-03T14:24:25.755Z,21.84
2022-09-03T14:26:55.907Z,21.81
2022-09-03T14:29:28.406Z,21.80
2022-09-03T14:32:15.951Z,21.74
2022-09-03T14:34:56.431Z,21.76
2022-09-03T14:37:39.603Z,21.80
2022-09-03T14:40:14.889Z,21.91
2022-09-03T14:42:56.006Z,21.94
2022-09-03T14:45:34.036Z,22.05
2022-09-03T14:48:12.782Z,22.01
2022-09-03T14:50:58.224Z,21.97
2022-09-03T14:53:43.414Z,21.88
2022-09-03T14:56:27.515Z,21.81
2022-09-03T14:59:13.524Z,21.87
2022-09-03T15:01:44.976Z,21.93
2022-09-03T15:04:34.351Z,21.97
2022-09-03T15:07:31.885Z,21.93
2022-09-03T15:10:05.333Z,21.84
2022-09-03T15:12:37.202Z,21.76
2022-09-03T15:15:11.711Z,21.70
2022-09-03T15:17:49.119Z,21.65
2022-09-03T15:20:33.437Z,21.65
2022-09-03T15:23:13.184Z,21.63
2022-09-03T15:26:12.971Z,21.60
2022-09-03T15:28:50.780Z,21.54
2022-09-03T15:31:23.541Z,21.47
2022-09-03T15:33:59.571Z,21.49
2022-09-03T15:36:28.703Z,21.49
2022-09-03T15:38:59.782Z,21.42
2022-09-03T15:41:35.845Z,21.39
2022-09-03T15:44:07.757Z,21.38
2022-09-03T15:46:41.253Z,21.35
2022-09-03T15:49:19.939Z,21.38
2022-09-03T15:52:02.047Z,21.39
2022-09-03T15:54:37.224Z,21.42
2022-09-03T15:57:09.162Z,21.46
2022-09-03T15:59:42.663Z,21.45
2022-09-03T16:02:15.486Z,21.39
2022-09-03T16:05:06.196Z,21.35
2022-09-03T16:07:48.931Z,21.31
2022-09-03T16:10:26.327Z,21.29
2022-09-03T16:13:03.670Z,21.25
2022-09-03T16:15:36.281Z,21.23
2022-09-03T16:18:09.008Z,21.25
2022-09-03T16:20:42.952Z,21.22
2022-09-03T16:23:16.603Z,21.22
2022-09-03T16:25:49.685Z,21.21
2022-09-03T16:28:21.142Z,21.16
2022-09-03T16:31:01.126Z,21.09
2022-09-03T16:33:35.649Z,21.12
2022-09-03T16:36:09.322Z,21.08
2022-09-03T16:38:46.693Z,21.11
2022-09-03T16:41:22.214Z,21.09
2022-09-03T16:43:58.436Z,21.08
2022-09-03T16:46:30.769Z,21.01
2022-09-03T16:49:01.944Z,20.95
2022-09-03T16:51:35.072Z,20.92
2022-09-03T16:54:26.425Z,20.87
2022-09-03T16:57:02.727Z,20.82
2022-09-03T16:59:47.615Z,20.74
2022-09-03T17:02:41.053Z,20.70
2022-09-03T17:05:31.698Z,20.65
2022-09-03T17:08:09.455Z,20.61
2022-09-03T17:10:43.161Z,20.57
2022-09-03T17:13:35.021Z,20.55
2022-09-03T17:16:10.328Z,20.54
2022-09-03T17:18:51.958Z,20.53
2022-09-03T17:21:34.031Z,20.51
2022-09-03T17:24:24.552Z,20.53
2022-09-03T17:26:56.084Z,20.54
2022-09-03T17:29:35.873Z,20.50
2022-09-03T17:32:11.978Z,20.45
2022-09-03T17:34:48.906Z,20.43
2022-09-03T17:37:23.588Z,20.34
2022-09-03T17:40:02.713Z,20.30
2022-09-03T17:42:34.264Z,20.27
2022-09-03T17:45:11.303Z,20.22
2022-09-03T17:48:05.502Z,20.12
2022-09-03T17:50:35.847Z,20.05
2022-09-03T17:53:11.246Z,20.02
2022-09-03T17:55:43.560Z,20.03
2022-09-03T17:58:12.920Z,19.99
2022-09-03T18:00:45.806Z,19.98
2022-09-03T18:03:18.328Z,19.95
2022-09-03T18:05:53.668Z,19.93
2022-09-03T18:08:25.753Z,19.92
2022-09-03T18:11:03.585Z,19.87
2022-09-03T18:13:44.173Z,19.85
2022-09-03T18:16:15.862Z,19.82
2022-09-03T18:18:47.716Z,19.85
2022-09-03T18:21:39.567Z,19.79
2022-09-03T18:24:36.527Z,19.75
2022-09-03T18:27:29.944Z,19.69
2022-09-03T18:30:20.395Z,19.68
2022-09-03T18:33:07.233Z,19.66
2022-09-03T18:35:53.378Z,19.62
2022-09-03T18:38:43.478Z,19.59
2022-09-03T18:41:55.889Z,19.57
2022-09-03T18:44:57.839Z,19.53
2022-09-03T18:48:10.800Z,19.45
2022-09-03T18:51:05.665Z,19.43
2022-09-03T18:54:00.029Z,19.36
2022-09-03T18:56:51.006Z,19.33
2022-09-03T18:59:49.258Z,19.30
2022-09-03T19:02:46.011Z,19.24
2022-09-03T19:05:36.779Z,19.20
2022-09-03T19:08:29.281Z,19.18
2022-09-03T19:11:19.985Z,19.14
2022-09-03T19:14:05.585Z,19.10
2022-09-03T19:17:01.004Z,19.03
2022-09-03T19:20:08.845Z,18.95
2022-09-03T19:22:56.879Z,18.89
2022-09-03T19:25:43.588Z,18.86
2022-09-03T19:28:34.554Z,18.78
2022-09-03T19:31:37.508Z,18.69
2022-09-03T19:34:29.349Z,18.65
2022-09-03T19:37:19.368Z,18.66
2022-09-03T19:40:16.180Z,18.64
2022-09-03T19:43:10.070Z,18.56
2022-09-03T19:46:09.371Z,18.55
2022-09-03T19:49:02.523Z,18.55
2022-09-03T19:51:54.209Z,18.59
2022-09-03T19:54:42.253Z,18.55
2022-09-03T19:57:30.925Z,18.56
2022-09-03T20:00:17.097Z,18.56
2022-09-03T20:03:08.427Z,18.53
2022-09-03T20:05:55.860Z,18.52
2022-09-03T20:08:44.022Z,18.53
2022-09-03T20:11:18.938Z,18.53
2022-09-03T20:14:04.797Z,18.52
2022-09-03T20:16:37.570Z,18.53
2022-09-03T20:19:11.394Z,18.53
2022-09-03T20:21:41.146Z,18.58
2022-09-03T20:24:19.728Z,18.59
2022-09-03T20:26:54.867Z,18.55
2022-09-03T20:29:33.538Z,18.51
2022-09-03T20:32:05.892Z,18.49
2022-09-03T20:34:37.519Z,18.48
2022-09-03T20:37:13.275Z,18.47
2022-09-03T20:39:52.044Z,18.39
2022-09-03T20:42:36.472Z,18.35
2022-09-03T20:45:09.051Z,18.34
2022-09-03T20:48:03.322Z,18.32
2022-09-03T20:50:48.712Z,18.34
2022-09-03T20:53:31.932Z,18.32
2022-09-03T20:56:04.988Z,18.37
2022-09-03T20:58:38.104Z,18.34
2022-09-03T21:01:08.407Z,18.35
2022-09-03T21:03:41.669Z,18.32
2022-09-03T21:06:20.189Z,18.35
2022-09-03T21:08:57.330Z,18.35
2022-09-03T21:11:36.159Z,18.31
2022-09-03T21:14:15.376Z,18.31
2022-09-03T21:16:49.923Z,18.29
2022-09-03T21:19:24.116Z,18.29
2022-09-03T21:21:58.074Z,18.27
2022-09-03T21:24:31.507Z,18.28
2022-09-03T21:27:06.267Z,18.22
2022-09-03T21:29:39.420Z,18.21
2022-09-03T21:32:13.065Z,18.21
2022-09-03T21:34:43.139Z,18.21
2022-09-03T21:37:12.899Z,18.20
2022-09-03T21:39:43.807Z,18.11
2022-09-03T21:42:18.265Z,18.08
2022-09-03T21:44:52.137Z,18.14
2022-09-03T21:47:22.172Z,18.10
2022-09-03T21:50:01.803Z,18.04
2022-09-03T21:52:36.568Z,18.03
2022-09-03T21:55:15.504Z,18.01
2022-09-03T21:58:03.835Z,17.96
2022-09-03T22:00:32.712Z,17.91
2022-09-03T22:03:01.658Z,17.86
2022-09-03T22:05:35.049Z,17.83
2022-09-03T22:08:12.272Z,17.72
2022-09-03T22:10:46.412Z,17.74
2022-09-03T22:13:20.577Z,17.73
2022-09-03T22:15:51.580Z,17.72
2022-09-03T22:18:29.002Z,17.62
2022-09-03T22:21:03.090Z,17.59
2022-09-03T22:23:43.859Z,17.55
2022-09-03T22:26:22.850Z,17.52
2022-09-03T22:29:02.330Z,17.49
2022-09-03T22:31:40.177Z,17.50
2022-09-03T22:34:33.457Z,17.45
2022-09-03T22:37:03.738Z,17.42
2022-09-03T22:39:37.663Z,17.39
2022-09-03T22:42:17.026Z,17.34
2022-09-03T22:45:13.558Z,17.24
2022-09-03T22:47:49.238Z,17.24
2022-09-03T22:50:22.257Z,17.21
2022-09-03T22:52:55.860Z,17.14
2022-09-03T22:55:25.634Z,17.08
2022-09-03T22:57:58.280Z,17.07
2022-09-03T23:00:29.836Z,17.07
2022-09-03T23:03:03.154Z,17.02
2022-09-03T23:05:38.091Z,16.98
2022-09-03T23:08:11.209Z,17.02
2022-09-03T23:10:53.537Z,17.00
2022-09-03T23:13:24.449Z,17.00
2022-09-03T23:16:00.903Z,16.95
2022-09-03T23:18:30.716Z,16.97
2022-09-03T23:21:05.889Z,16.88
2022-09-03T23:23:36.010Z,16.83
2022-09-03T23:26:13.257Z,16.76
2022-09-03T23:28:44.416Z,16.76
2022-09-03T23:31:19.929Z,16.70
2022-09-03T23:34:08.905Z,16.71
2022-09-03T23:37:16.099Z,16.63
2022-09-03T23:40:01.304Z,16.56
2022-09-03T23:42:44.696Z,16.52
2022-09-03T23:45:20.860Z,16.50
2022-09-03T23:47:54.463Z,16.49
2022-09-03T23:50:33.133Z,16.43
2022-09-03T23:53:22.256Z,16.43
2022-09-03T23:55:59.821Z,16.42
2022-09-03T23:58:37.086Z,16.37
